createdAt,value
2019-01-31T00:01:27.166Z,98773.11
2019-01-31T00:04:44.214Z,98776.30
2019-01-31T00:08:02.387Z,98770.44
2019-01-31T00:11:13.398Z,98765.80
2019-01-31T00:14:17.734Z,98765.38
2019-01-31T00:17:39.197Z,98760.02
2019-01-31T00:20:58.222Z,98771.30
2019-01-31T00:24:03.917Z,98768.11
2019-01-31T00:27:44.421Z,98765.25
2019-01-31T00:31:17.166Z,98763.70
2019-01-31T00:34:28.520Z,98763.27
2019-01-31T00:37:26.683Z,98762.56
2019-01-31T00:40:29.098Z,98761.23
2019-01-31T00:43:54.226Z,98761.90
2019-01-31T00:47:03.565Z,98768.72
2019-01-31T00:50:02.056Z,98769.43
2019-01-31T00:53:21.035Z,98775.88
2019-01-31T00:56:50.629Z,98777.36
2019-01-31T00:59:58.295Z,98768.73
2019-01-31T01:02:47.454Z,98758.67
2019-01-31T01:06:11.446Z,98764.31
2019-01-31T01:09:07.421Z,98766.16
2019-01-31T01:12:21.613Z,98774.17
2019-01-31T01:15:46.139Z,98771.73
2019-01-31T01:19:15.269Z,98765.87
2019-01-31T01:22:33.871Z,98766.05
2019-01-31T01:26:01.532Z,98765.50
2019-01-31T01:29:05.618Z,98770.78
2019-01-31T01:32:18.295Z,98775.06
2019-01-31T01:35:15.817Z,98767.68
2019-01-31T01:38:30.390Z,98767.19
2019-01-31T01:42:04.962Z,98770.31
2019-01-31T01:45:04.259Z,98762.59
2019-01-31T01:48:08.526Z,98761.58
2019-01-31T01:51:48.818Z,98766.98
2019-01-31T01:55:13.513Z,98773.79
2019-01-31T01:58:40.822Z,98766.22
2019-01-31T02:01:47.808Z,98767.62
2019-01-31T02:05:14.939Z,98766.02
2019-01-31T02:08:21.389Z,98766.95
2019-01-31T02:11:33.562Z,98760.52
2019-01-31T02:14:48.161Z,98752.25
2019-01-31T02:18:26.167Z,98744.77
2019-01-31T02:21:27.655Z,98754.16
2019-01-31T02:24:21.963Z,98765.00
2019-01-31T02:27:24.823Z,98765.91
2019-01-31T02:30:49.141Z,98761.20
2019-01-31T02:34:21.144Z,98761.84
2019-01-31T02:37:53.954Z,98768.79
2019-01-31T02:40:49.596Z,98771.01
2019-01-31T02:43:53.812Z,98759.44
2019-01-31T02:46:46.815Z,98744.00
2019-01-31T02:50:03.680Z,98735.41
2019-01-31T02:53:13.194Z,98735.75
2019-01-31T02:56:50.183Z,98734.50
2019-01-31T03:00:06.663Z,98733.31
2019-01-31T03:02:57.649Z,98724.64
2019-01-31T03:06:25.572Z,98728.50
2019-01-31T03:09:26.942Z,98733.52
2019-01-31T03:12:24.918Z,98723.51
2019-01-31T03:15:24.125Z,98724.28
2019-01-31T03:18:17.331Z,98714.46
2019-01-31T03:21:42.006Z,98712.08
2019-01-31T03:24:40.238Z,98717.78
2019-01-31T03:28:01.755Z,98714.26
2019-01-31T03:31:30.265Z,98715.23
2019-01-31T03:35:00.690Z,98709.19
2019-01-31T03:38:20.877Z,98706.37
2019-01-31T03:41:34.066Z,98697.11
2019-01-31T03:45:04.038Z,98706.00
2019-01-31T03:48:28.423Z,98696.73
2019-01-31T03:51:32.102Z,98692.23
2019-01-31T03:54:54.493Z,98694.62
2019-01-31T03:58:23.437Z,98696.29
2019-01-31T04:01:47.759Z,98695.41
2019-01-31T04:04:25.633Z,98692.96
2019-01-31T04:06:53.642Z,98685.77
2019-01-31T04:09:21.783Z,98682.80
2019-01-31T04:11:49.803Z,98676.50
2019-01-31T04:14:17.864Z,98683.73
2019-01-31T04:16:46.469Z,98676.11
2019-01-31T04:19:14.288Z,98677.95
2019-01-31T04:21:41.809Z,98674.36
2019-01-31T04:24:09.683Z,98677.88
2019-01-31T04:26:36.858Z,98674.16
2019-01-31T04:29:04.528Z,98672.21
2019-01-31T04:31:31.966Z,98670.45
2019-01-31T04:33:59.197Z,98667.46
2019-01-31T04:36:26.575Z,98660.89
2019-01-31T04:38:54.522Z,98660.03
2019-01-31T04:41:22.637Z,98656.02
2019-01-31T04:43:50.322Z,98658.52
2019-01-31T04:46:17.835Z,98647.36
2019-01-31T04:48:45.576Z,98654.16
2019-01-31T04:51:13.126Z,98657.35
2019-01-31T04:53:40.414Z,98651.98
2019-01-31T04:56:07.777Z,98644.37
2019-01-31T04:58:36.038Z,98637.06
2019-01-31T05:01:03.776Z,98633.12
2019-01-31T05:03:34.610Z,98623.74
2019-01-31T05:06:02.377Z,98622.80
2019-01-31T05:08:30.935Z,98614.97
2019-01-31T05:10:58.566Z,98605.70
2019-01-31T05:13:26.274Z,98605.08
2019-01-31T05:15:53.887Z,98613.12
2019-01-31T05:18:22.130Z,98618.08
2019-01-31T05:20:50.664Z,98623.96
2019-01-31T05:23:18.481Z,98619.30
2019-01-31T05:25:45.997Z,98614.89
2019-01-31T05:28:14.008Z,98615.70
2019-01-31T05:30:41.603Z,98614.88
2019-01-31T05:33:09.281Z,98623.23
2019-01-31T05:35:37.714Z,98625.17
2019-01-31T05:38:05.097Z,98626.73
2019-01-31T05:40:32.705Z,98629.33
2019-01-31T05:43:00.613Z,98625.61
2019-01-31T05:45:28.321Z,98629.02
2019-01-31T05:47:56.072Z,98627.03
2019-01-31T05:50:23.943Z,98628.16
2019-01-31T05:52:51.739Z,98631.88
2019-01-31T05:55:20.207Z,98628.16
2019-01-31T05:57:48.126Z,98629.10
2019-01-31T06:00:21.906Z,98636.19
2019-01-31T06:02:49.283Z,98632.52
2019-01-31T06:05:17.377Z,98646.42
2019-01-31T06:07:44.881Z,98651.26
2019-01-31T06:10:12.567Z,98638.27
2019-01-31T06:12:40.141Z,98637.14
2019-01-31T06:15:11.389Z,98636.71
2019-01-31T06:17:38.909Z,98644.58
2019-01-31T06:20:08.604Z,98631.47
2019-01-31T06:22:35.962Z,98632.51
2019-01-31T06:25:05.139Z,98630.83
2019-01-31T06:27:35.788Z,98646.92
2019-01-31T06:30:05.993Z,98644.87
2019-01-31T06:32:33.287Z,98629.41
2019-01-31T06:35:00.826Z,98637.59
2019-01-31T06:37:28.249Z,98641.27
2019-01-31T06:39:55.797Z,98632.92
2019-01-31T06:42:23.524Z,98643.13
2019-01-31T06:44:50.774Z,98634.17
2019-01-31T06:47:18.225Z,98643.77
2019-01-31T06:49:46.209Z,98643.85
2019-01-31T06:52:13.307Z,98645.41
2019-01-31T06:54:40.830Z,98637.37
2019-01-31T06:57:08.219Z,98640.34
2019-01-31T06:59:35.697Z,98637.88
2019-01-31T07:02:03.192Z,98646.22
2019-01-31T07:04:30.816Z,98644.14
2019-01-31T07:06:58.077Z,98647.64
2019-01-31T07:09:25.354Z,98648.06
2019-01-31T07:11:52.905Z,98642.88
2019-01-31T07:14:20.509Z,98645.88
2019-01-31T07:16:48.186Z,98657.63
2019-01-31T07:19:17.247Z,98671.96
2019-01-31T07:21:44.897Z,98676.39
2019-01-31T07:24:12.519Z,98677.11
2019-01-31T07:26:41.531Z,98681.64
2019-01-31T07:29:09.697Z,98679.56
2019-01-31T07:31:37.961Z,98679.85
2019-01-31T07:34:05.459Z,98689.06
2019-01-31T07:36:33.177Z,98692.33
2019-01-31T07:39:00.427Z,98697.91
2019-01-31T07:41:27.960Z,98695.62
2019-01-31T07:43:55.806Z,98702.42
2019-01-31T07:46:23.657Z,98705.91
2019-01-31T07:48:51.048Z,98710.24
2019-01-31T07:51:18.685Z,98716.11
2019-01-31T07:53:46.529Z,98714.03
2019-01-31T07:56:13.791Z,98712.67
2019-01-31T07:58:41.593Z,98715.44
2019-01-31T08:01:09.504Z,98716.17
2019-01-31T08:03:37.235Z,98713.46
2019-01-31T08:06:04.941Z,98709.93
2019-01-31T08:08:32.228Z,98711.66
2019-01-31T08:10:59.862Z,98712.06
2019-01-31T08:13:31.029Z,98711.63
2019-01-31T08:15:58.447Z,98715.47
2019-01-31T08:18:26.124Z,98714.83
2019-01-31T08:20:53.702Z,98712.00
2019-01-31T08:23:21.514Z,98715.92
2019-01-31T08:25:49.363Z,98710.92
2019-01-31T08:28:17.355Z,98712.83
2019-01-31T08:30:44.591Z,98713.55
2019-01-31T08:33:13.322Z,98704.35
2019-01-31T08:35:40.576Z,98703.53
2019-01-31T08:38:08.560Z,98712.72
2019-01-31T08:40:35.801Z,98706.30
2019-01-31T08:43:03.768Z,98708.45
2019-01-31T08:45:31.546Z,98713.34
2019-01-31T08:47:59.587Z,98709.19
2019-01-31T08:50:27.853Z,98713.67
2019-01-31T08:52:55.465Z,98716.79
2019-01-31T08:55:23.166Z,98715.97
2019-01-31T08:57:54.010Z,98717.84
2019-01-31T09:00:24.674Z,98707.95
2019-01-31T09:02:52.337Z,98709.14
2019-01-31T09:05:20.686Z,98701.89
2019-01-31T09:07:49.019Z,98703.41
2019-01-31T09:10:20.866Z,98705.95
2019-01-31T09:12:48.850Z,98714.77
2019-01-31T09:15:20.600Z,98712.66
2019-01-31T09:17:52.529Z,98705.35
2019-01-31T09:20:24.505Z,98703.43
2019-01-31T09:23:48.465Z,98703.50
2019-01-31T09:27:30.258Z,98706.42
2019-01-31T09:30:28.675Z,98710.69
2019-01-31T09:33:56.962Z,98711.52
2019-01-31T09:37:08.710Z,98712.04
2019-01-31T09:40:38.229Z,98715.42
2019-01-31T09:43:48.962Z,98713.09
2019-01-31T09:47:21.322Z,98717.30
2019-01-31T09:50:49.470Z,98713.50
2019-01-31T09:53:52.204Z,98715.59
2019-01-31T09:57:12.274Z,98725.62
2019-01-31T10:00:36.721Z,98722.80
2019-01-31T10:04:06.684Z,98723.67
2019-01-31T10:07:31.396Z,98720.75
2019-01-31T10:11:11.414Z,98721.23
2019-01-31T10:14:34.862Z,98724.56
2019-01-31T10:17:50.586Z,98723.10
2019-01-31T10:21:11.209Z,98726.72
2019-01-31T10:24:29.225Z,98720.05
2019-01-31T10:27:57.714Z,98716.94
2019-01-31T10:31:12.621Z,98715.72
2019-01-31T10:34:51.313Z,98719.83
2019-01-31T10:38:13.127Z,98717.24
2019-01-31T10:41:40.118Z,98712.61
2019-01-31T10:44:59.926Z,98708.05
2019-01-31T10:48:32.038Z,98703.81
2019-01-31T10:51:36.742Z,98702.38
2019-01-31T10:54:28.069Z,98696.55
2019-01-31T10:57:44.538Z,98699.84
2019-01-31T11:01:06.630Z,98699.02
2019-01-31T11:04:41.242Z,98695.57
2019-01-31T11:07:51.073Z,98690.11
2019-01-31T11:10:54.029Z,98689.02
2019-01-31T11:14:16.425Z,98679.94
2019-01-31T11:17:36.544Z,98677.62
2019-01-31T11:21:18.978Z,98679.78
2019-01-31T11:25:02.264Z,98667.52
2019-01-31T11:28:35.981Z,98666.86
2019-01-31T11:32:08.021Z,98665.05
2019-01-31T11:35:16.259Z,98659.13
2019-01-31T11:38:37.973Z,98658.98
2019-01-31T11:41:57.321Z,98651.41
2019-01-31T11:45:22.495Z,98656.59
2019-01-31T11:48:31.316Z,98653.34
2019-01-31T11:52:27.677Z,98644.64
2019-01-31T11:56:20.925Z,98642.82
2019-01-31T11:59:06.030Z,98636.18
2019-01-31T12:01:35.693Z,98637.03
2019-01-31T12:04:13.180Z,98640.53
2019-01-31T12:06:40.558Z,98635.61
2019-01-31T12:09:12.999Z,98640.09
2019-01-31T12:11:40.946Z,98641.48
2019-01-31T12:14:13.251Z,98631.95
2019-01-31T12:16:41.616Z,98634.50
2019-01-31T12:19:09.259Z,98631.88
2019-01-31T12:21:36.961Z,98628.39
2019-01-31T12:24:04.686Z,98630.84
2019-01-31T12:26:33.669Z,98629.11
2019-01-31T12:29:01.551Z,98631.06
2019-01-31T12:31:29.056Z,98632.16
2019-01-31T12:33:56.614Z,98627.61
2019-01-31T12:36:24.422Z,98624.83
2019-01-31T12:38:54.901Z,98627.73
2019-01-31T12:41:22.387Z,98625.38
2019-01-31T12:43:50.543Z,98632.77
2019-01-31T12:46:18.279Z,98629.42
2019-01-31T12:48:45.796Z,98634.25
2019-01-31T12:51:14.707Z,98626.07
2019-01-31T12:53:42.838Z,98625.37
2019-01-31T12:56:10.720Z,98624.84
2019-01-31T12:58:38.144Z,98620.38
2019-01-31T13:01:06.107Z,98625.61
2019-01-31T13:03:34.653Z,98623.45
2019-01-31T13:06:02.560Z,98619.56
2019-01-31T13:08:32.016Z,98621.28
2019-01-31T13:10:59.382Z,98626.69
2019-01-31T13:13:26.740Z,98616.05
2019-01-31T13:15:55.023Z,98622.63
2019-01-31T13:18:22.993Z,98622.09
2019-01-31T13:20:50.857Z,98619.72
2019-01-31T13:23:18.589Z,98614.48
2019-01-31T13:25:46.047Z,98611.91
2019-01-31T13:28:18.833Z,98614.61
2019-01-31T13:30:47.274Z,98618.58
2019-01-31T13:33:19.434Z,98615.02
2019-01-31T13:35:47.479Z,98613.02
2019-01-31T13:38:15.310Z,98614.24
2019-01-31T13:40:43.072Z,98615.06
2019-01-31T13:43:14.085Z,98619.15
2019-01-31T13:45:42.240Z,98616.98
2019-01-31T13:48:12.900Z,98617.19
2019-01-31T13:50:40.906Z,98609.86
2019-01-31T13:53:08.926Z,98616.00
2019-01-31T13:55:37.155Z,98621.11
2019-01-31T13:58:05.322Z,98617.47
2019-01-31T14:00:33.221Z,98620.75
2019-01-31T14:03:01.806Z,98610.36
2019-01-31T14:05:30.275Z,98613.67
2019-01-31T14:07:57.746Z,98611.91
2019-01-31T14:10:25.554Z,98610.72
2019-01-31T14:12:53.834Z,98607.38
2019-01-31T14:15:33.386Z,98610.31
2019-01-31T14:18:03.269Z,98608.67
2019-01-31T14:20:32.227Z,98606.80
2019-01-31T14:22:59.811Z,98610.48
2019-01-31T14:25:27.562Z,98609.31
2019-01-31T14:27:57.739Z,98610.62
2019-01-31T14:30:32.233Z,98610.01
2019-01-31T14:33:00.243Z,98603.09
2019-01-31T14:35:28.549Z,98598.06
2019-01-31T14:37:56.645Z,98600.15
2019-01-31T14:40:24.654Z,98599.82
2019-01-31T14:42:52.585Z,98601.05
2019-01-31T14:45:20.315Z,98595.77
2019-01-31T14:47:49.134Z,98605.14
2019-01-31T14:50:30.577Z,98601.73
2019-01-31T14:53:00.139Z,98601.20
2019-01-31T14:55:31.843Z,98597.40
2019-01-31T14:57:59.585Z,98596.52
2019-01-31T15:00:29.471Z,98601.09
2019-01-31T15:02:56.955Z,98607.92
2019-01-31T15:05:25.058Z,98608.06
2019-01-31T15:07:52.758Z,98600.67
2019-01-31T15:10:23.666Z,98597.33
2019-01-31T15:12:51.903Z,98604.90
2019-01-31T15:15:19.836Z,98608.83
2019-01-31T15:17:47.598Z,98605.20
2019-01-31T15:20:34.465Z,98605.87
2019-01-31T15:22:52.016Z,98613.14
2019-01-31T15:25:20.207Z,98602.17
2019-01-31T15:27:48.535Z,98611.56
2019-01-31T15:30:21.383Z,98613.20
2019-01-31T15:32:49.100Z,98611.19
2019-01-31T15:35:16.985Z,98607.43
2019-01-31T15:37:45.006Z,98601.13
2019-01-31T15:40:18.085Z,98602.48
2019-01-31T15:42:48.851Z,98602.58
2019-01-31T15:45:16.404Z,98605.51
2019-01-31T15:47:44.150Z,98603.40
2019-01-31T15:50:13.346Z,98601.13
2019-01-31T15:52:45.486Z,98602.47
2019-01-31T15:55:15.865Z,98604.12
2019-01-31T15:57:43.256Z,98610.33
2019-01-31T16:00:22.869Z,98601.41
2019-01-31T16:02:51.538Z,98603.63
2019-01-31T16:05:19.441Z,98602.58
2019-01-31T16:07:47.738Z,98593.67
2019-01-31T16:10:15.470Z,98601.70
2019-01-31T16:12:43.177Z,98596.55
2019-01-31T16:15:12.001Z,98598.47
2019-01-31T16:17:39.393Z,98596.02
2019-01-31T16:20:12.507Z,98594.43
2019-01-31T16:22:40.512Z,98594.81
2019-01-31T16:25:08.488Z,98597.59
2019-01-31T16:27:36.267Z,98588.75
2019-01-31T16:30:07.342Z,98594.96
2019-01-31T16:32:34.676Z,98590.72
2019-01-31T16:35:04.544Z,98583.40
2019-01-31T16:37:32.626Z,98585.95
2019-01-31T16:40:00.325Z,98577.13
2019-01-31T16:42:28.887Z,98587.33
2019-01-31T16:45:06.439Z,98588.11
2019-01-31T16:47:26.392Z,98589.55
2019-01-31T16:49:54.476Z,98588.02
2019-01-31T16:52:22.214Z,98587.59
2019-01-31T16:54:52.430Z,98581.14
2019-01-31T16:57:20.081Z,98582.81
2019-01-31T16:59:48.692Z,98578.94
2019-01-31T17:02:16.551Z,98581.73
2019-01-31T17:04:44.414Z,98575.87
2019-01-31T17:07:12.024Z,98576.92
2019-01-31T17:09:40.141Z,98566.53
2019-01-31T17:12:07.504Z,98565.44
2019-01-31T17:14:35.439Z,98562.13
2019-01-31T17:17:02.875Z,98565.34
2019-01-31T17:19:30.832Z,98559.00
2019-01-31T17:21:58.906Z,98559.45
2019-01-31T17:24:26.569Z,98555.02
2019-01-31T17:26:54.073Z,98548.62
2019-01-31T17:29:21.630Z,98541.20
2019-01-31T17:31:49.278Z,98536.95
2019-01-31T17:34:16.850Z,98545.70
2019-01-31T17:36:46.084Z,98537.34
2019-01-31T17:39:13.699Z,98536.44
2019-01-31T17:41:41.708Z,98532.98
2019-01-31T17:44:09.728Z,98535.23
2019-01-31T17:46:37.184Z,98533.80
2019-01-31T17:49:04.557Z,98530.87
2019-01-31T17:53:42.581Z,98521.92
2019-01-31T17:56:09.967Z,98527.12
2019-01-31T17:58:37.834Z,98525.05
2019-01-31T18:01:05.695Z,98526.39
2019-01-31T18:03:33.330Z,98522.45
2019-01-31T18:06:00.919Z,98516.24
2019-01-31T18:08:28.264Z,98509.88
2019-01-31T18:10:56.699Z,98505.57
2019-01-31T18:13:24.086Z,98507.73
2019-01-31T18:15:51.577Z,98515.52
2019-01-31T18:18:19.458Z,98516.55
2019-01-31T18:20:47.463Z,98522.22
2019-01-31T18:23:14.597Z,98518.84
2019-01-31T18:25:41.939Z,98510.77
2019-01-31T18:28:09.341Z,98509.62
2019-01-31T18:30:37.231Z,98500.95
2019-01-31T18:33:05.391Z,98501.25
2019-01-31T18:35:32.913Z,98495.18
2019-01-31T18:38:00.380Z,98488.30
2019-01-31T18:40:29.931Z,98482.16
2019-01-31T18:42:57.606Z,98467.20
2019-01-31T18:45:27.850Z,98459.13
2019-01-31T18:47:58.086Z,98446.21
2019-01-31T18:50:28.896Z,98448.52
2019-01-31T18:52:56.850Z,98445.97
2019-01-31T18:55:25.120Z,98448.17
2019-01-31T18:57:52.595Z,98447.82
2019-01-31T19:00:24.933Z,98456.26
2019-01-31T19:02:52.814Z,98456.30
2019-01-31T19:05:21.465Z,98467.07
2019-01-31T19:07:48.902Z,98462.78
2019-01-31T19:10:17.389Z,98474.33
2019-01-31T19:12:44.740Z,98470.00
2019-01-31T19:15:14.258Z,98471.16
2019-01-31T19:17:41.615Z,98467.02
2019-01-31T19:20:17.886Z,98468.69
2019-01-31T19:22:45.759Z,98457.99
2019-01-31T19:25:14.165Z,98459.33
2019-01-31T19:27:43.668Z,98463.70
2019-01-31T19:30:17.449Z,98452.73
2019-01-31T19:32:45.374Z,98457.75
2019-01-31T19:35:13.119Z,98448.98
2019-01-31T19:37:40.887Z,98457.36
2019-01-31T19:40:11.123Z,98444.50
2019-01-31T19:42:38.596Z,98446.30
2019-01-31T19:45:11.062Z,98442.07
2019-01-31T19:47:38.623Z,98434.89
2019-01-31T19:50:07.551Z,98442.42
2019-01-31T19:52:35.499Z,98449.03
2019-01-31T19:55:07.038Z,98444.08
2019-01-31T19:57:34.800Z,98427.72
2019-01-31T20:00:04.016Z,98422.58
2019-01-31T20:02:31.644Z,98431.44
2019-01-31T20:04:59.862Z,98422.36
2019-01-31T20:07:28.168Z,98423.19
2019-01-31T20:09:55.917Z,98417.97
2019-01-31T20:12:24.286Z,98404.80
2019-01-31T20:14:51.881Z,98392.42
2019-01-31T20:17:19.561Z,98387.59
2019-01-31T20:19:50.446Z,98380.80
2019-01-31T20:22:18.162Z,98381.41
2019-01-31T20:24:45.504Z,98387.89
2019-01-31T20:27:13.337Z,98381.20
2019-01-31T20:29:41.115Z,98368.66
2019-01-31T20:32:08.826Z,98362.96
2019-01-31T20:34:37.979Z,98359.58
2019-01-31T20:37:06.278Z,98361.22
2019-01-31T20:39:33.559Z,98353.49
2019-01-31T20:42:01.339Z,98341.44
2019-01-31T20:44:29.111Z,98350.91
2019-01-31T20:46:57.083Z,98340.47
2019-01-31T20:49:24.336Z,98341.14
2019-01-31T20:51:52.254Z,98326.50
2019-01-31T20:54:20.011Z,98324.77
2019-01-31T20:56:50.985Z,98321.46
2019-01-31T20:59:18.252Z,98314.45
2019-01-31T21:01:45.697Z,98317.84
2019-01-31T21:04:13.054Z,98310.84
2019-01-31T21:06:41.798Z,98311.66
2019-01-31T21:09:09.685Z,98305.58
2019-01-31T21:11:37.566Z,98312.05
2019-01-31T21:14:06.399Z,98309.59
2019-01-31T21:16:33.811Z,98306.91
2019-01-31T21:19:01.533Z,98308.44
2019-01-31T21:21:29.506Z,98306.59
2019-01-31T21:23:56.788Z,98304.95
2019-01-31T21:26:24.784Z,98309.42
2019-01-31T21:28:52.459Z,98306.45
2019-01-31T21:31:20.143Z,98301.91
2019-01-31T21:33:48.100Z,98297.75
2019-01-31T21:36:16.638Z,98289.50
2019-01-31T21:38:44.050Z,98298.23
2019-01-31T21:41:11.385Z,98299.36
2019-01-31T21:43:39.491Z,98298.76
2019-01-31T21:46:06.870Z,98300.40
2019-01-31T21:48:34.695Z,98301.00
2019-01-31T21:51:02.057Z,98297.31
2019-01-31T21:53:32.727Z,98299.84
2019-01-31T21:56:00.168Z,98292.59
2019-01-31T21:58:31.389Z,98283.09
2019-01-31T22:00:59.628Z,98277.59
2019-01-31T22:03:31.399Z,98262.73
2019-01-31T22:05:58.858Z,98260.61
2019-01-31T22:08:26.099Z,98256.91
2019-01-31T22:10:53.679Z,98259.37
2019-01-31T22:13:21.169Z,98257.88
2019-01-31T22:15:49.292Z,98247.33
2019-01-31T22:18:17.942Z,98243.83
2019-01-31T22:20:45.727Z,98242.56
2019-01-31T22:23:13.378Z,98229.16
2019-01-31T22:25:40.983Z,98219.05
2019-01-31T22:28:08.688Z,98202.52
2019-01-31T22:30:37.189Z,98207.82
2019-01-31T22:33:06.963Z,98211.19
2019-01-31T22:35:34.555Z,98214.17
2019-01-31T22:38:01.783Z,98212.70
2019-01-31T22:40:29.958Z,98213.81
2019-01-31T22:42:57.590Z,98221.93
2019-01-31T22:45:25.117Z,98218.37
2019-01-31T22:47:53.446Z,98214.87
2019-01-31T22:50:21.928Z,98210.32
2019-01-31T22:52:49.899Z,98203.84
2019-01-31T22:55:19.787Z,98203.42
2019-01-31T22:57:47.522Z,98195.89
2019-01-31T23:00:57.011Z,98199.23
2019-01-31T23:03:25.792Z,98191.47
2019-01-31T23:05:53.395Z,98189.94
2019-01-31T23:08:20.800Z,98188.20
2019-01-31T23:10:48.616Z,98191.73
2019-01-31T23:13:16.223Z,98190.69
2019-01-31T23:15:43.572Z,98186.42
2019-01-31T23:18:11.415Z,98197.16
2019-01-31T23:20:39.269Z,98198.34
2019-01-31T23:23:06.940Z,98201.12
2019-01-31T23:25:40.130Z,98209.52
2019-01-31T23:28:04.419Z,98200.95
2019-01-31T23:30:32.332Z,98203.34
2019-01-31T23:32:59.634Z,98197.60
2019-01-31T23:35:27.828Z,98188.50
2019-01-31T23:37:56.079Z,98179.63
2019-01-31T23:40:23.465Z,98177.33
2019-01-31T23:42:50.916Z,98174.41
2019-01-31T23:45:18.994Z,98168.81
2019-01-31T23:47:48.860Z,98161.88
2019-01-31T23:50:15.754Z,98150.70
2019-01-31T23:52:43.098Z,98152.77
2019-01-31T23:55:10.879Z,98150.23
2019-01-31T23:57:38.333Z,98152.02
